sensor_id;sensor_type;location;lat;lon;timestamp;P1;durP1;ratioP1;P2;durP2;ratioP2
1603;SDS011;795;49.296;11.348;2023-04-24T00:02:07;5.03;;;4.53;;
1603;SDS011;795;49.296;11.348;2023-04-24T00:04:37;5.87;;;3.60;;
1603;SDS011;795;49.296;11.348;2023-04-24T00:07:07;2.37;;;2.17;;
1603;SDS011;795;49.296;11.348;2023-04-24T00:09:34;4.67;;;3.83;;
1603;SDS011;795;49.296;11.348;2023-04-24T00:12:01;2.70;;;2.50;;
1603;SDS011;795;49.296;11.348;2023-04-24T00:14:30;2.50;;;2.30;;
1603;SDS011;795;49.296;11.348;2023-04-24T00:16:57;2.50;;;2.30;;
1603;SDS011;795;49.296;11.348;2023-04-24T00:19:24;2.50;;;2.30;;
1603;SDS011;795;49.296;11.348;2023-04-24T00:21:51;2.40;;;2.20;;
1603;SDS011;795;49.296;11.348;2023-04-24T00:24:18;2.33;;;2.13;;
1603;SDS011;795;49.296;11.348;2023-04-24T00:26:46;2.73;;;2.20;;
1603;SDS011;795;49.296;11.348;2023-04-24T00:29:13;2.50;;;2.17;;
1603;SDS011;795;49.296;11.348;2023-04-24T00:31:40;2.10;;;1.97;;
1603;SDS011;795;49.296;11.348;2023-04-24T00:34:07;3.50;;;2.03;;
1603;SDS011;795;49.296;11.348;2023-04-24T00:36:34;2.03;;;1.83;;
1603;SDS011;795;49.296;11.348;2023-04-24T00:39:01;2.23;;;2.03;;
1603;SDS011;795;49.296;11.348;2023-04-24T00:41:28;1.97;;;1.87;;
1603;SDS011;795;49.296;11.348;2023-04-24T00:43:56;2.27;;;2.10;;
1603;SDS011;795;49.296;11.348;2023-04-24T00:46:23;2.37;;;2.00;;
1603;SDS011;795;49.296;11.348;2023-04-24T00:48:50;1.93;;;1.83;;
1603;SDS011;795;49.296;11.348;2023-04-24T00:51:18;2.17;;;1.83;;
1603;SDS011;795;49.296;11.348;2023-04-24T00:53:46;2.00;;;1.90;;
1603;SDS011;795;49.296;11.348;2023-04-24T00:56:12;2.43;;;2.17;;
1603;SDS011;795;49.296;11.348;2023-04-24T00:58:40;2.10;;;2.00;;
1603;SDS011;795;49.296;11.348;2023-04-24T01:01:09;2.33;;;2.10;;
1603;SDS011;795;49.296;11.348;2023-04-24T01:03:38;1.87;;;1.77;;
1603;SDS011;795;49.296;11.348;2023-04-24T01:06:06;1.73;;;1.63;;
1603;SDS011;795;49.296;11.348;2023-04-24T01:08:36;2.27;;;1.70;;
1603;SDS011;795;49.296;11.348;2023-04-24T01:11:05;1.63;;;1.53;;
1603;SDS011;795;49.296;11.348;2023-04-24T01:13:33;1.70;;;1.60;;
1603;SDS011;795;49.296;11.348;2023-04-24T01:16:01;2.40;;;1.80;;
1603;SDS011;795;49.296;11.348;2023-04-24T01:18:28;2.97;;;1.90;;
1603;SDS011;795;49.296;11.348;2023-04-24T01:20:56;1.90;;;1.80;;
1603;SDS011;795;49.296;11.348;2023-04-24T01:23:29;2.20;;;1.80;;
1603;SDS011;795;49.296;11.348;2023-04-24T01:25:56;2.33;;;2.13;;
1603;SDS011;795;49.296;11.348;2023-04-24T01:28:23;4.50;;;2.13;;
1603;SDS011;795;49.296;11.348;2023-04-24T01:30:50;2.03;;;1.83;;
1603;SDS011;795;49.296;11.348;2023-04-24T01:33:20;2.23;;;2.13;;
1603;SDS011;795;49.296;11.348;2023-04-24T01:35:48;2.47;;;1.87;;
1603;SDS011;795;49.296;11.348;2023-04-24T01:38:16;2.33;;;2.13;;
1603;SDS011;795;49.296;11.348;2023-04-24T01:40:43;5.03;;;2.50;;
1603;SDS011;795;49.296;11.348;2023-04-24T01:43:10;2.00;;;1.90;;
1603;SDS011;795;49.296;11.348;2023-04-24T01:45:39;2.83;;;2.17;;
1603;SDS011;795;49.296;11.348;2023-04-24T01:48:06;2.10;;;1.93;;
1603;SDS011;795;49.296;11.348;2023-04-24T01:50:33;2.30;;;2.10;;
1603;SDS011;795;49.296;11.348;2023-04-24T01:53:00;2.53;;;2.33;;
1603;SDS011;795;49.296;11.348;2023-04-24T01:55:27;3.10;;;2.00;;
1603;SDS011;795;49.296;11.348;2023-04-24T01:57:54;2.27;;;2.17;;
1603;SDS011;795;49.296;11.348;2023-04-24T02:00:23;2.70;;;1.90;;
1603;SDS011;795;49.296;11.348;2023-04-24T02:02:51;4.13;;;2.00;;
1603;SDS011;795;49.296;11.348;2023-04-24T02:05:18;1.93;;;1.83;;
1603;SDS011;795;49.296;11.348;2023-04-24T02:07:45;1.87;;;1.77;;
1603;SDS011;795;49.296;11.348;2023-04-24T02:10:12;2.10;;;2.00;;
1603;SDS011;795;49.296;11.348;2023-04-24T02:12:39;2.00;;;1.90;;
1603;SDS011;795;49.296;11.348;2023-04-24T02:15:06;2.37;;;1.87;;
1603;SDS011;795;49.296;11.348;2023-04-24T02:17:33;2.53;;;2.20;;
1603;SDS011;795;49.296;11.348;2023-04-24T02:20:00;3.00;;;2.80;;
1603;SDS011;795;49.296;11.348;2023-04-24T02:22:27;2.97;;;2.77;;
1603;SDS011;795;49.296;11.348;2023-04-24T02:24:54;2.63;;;2.40;;
1603;SDS011;795;49.296;11.348;2023-04-24T02:27:21;3.20;;;2.90;;
1603;SDS011;795;49.296;11.348;2023-04-24T02:29:48;3.03;;;2.77;;
1603;SDS011;795;49.296;11.348;2023-04-24T02:32:15;3.67;;;3.37;;
1603;SDS011;795;49.296;11.348;2023-04-24T02:34:42;4.57;;;2.53;;
1603;SDS011;795;49.296;11.348;2023-04-24T02:37:09;3.00;;;2.80;;
1603;SDS011;795;49.296;11.348;2023-04-24T02:39:36;6.20;;;2.50;;
1603;SDS011;795;49.296;11.348;2023-04-24T02:42:03;4.10;;;3.00;;
1603;SDS011;795;49.296;11.348;2023-04-24T02:44:30;2.30;;;2.10;;
1603;SDS011;795;49.296;11.348;2023-04-24T02:46:57;3.40;;;2.00;;
1603;SDS011;795;49.296;11.348;2023-04-24T02:49:23;2.37;;;2.03;;
1603;SDS011;795;49.296;11.348;2023-04-24T02:51:50;2.37;;;2.17;;
1603;SDS011;795;49.296;11.348;2023-04-24T02:54:17;3.37;;;3.07;;
1603;SDS011;795;49.296;11.348;2023-04-24T02:56:44;2.77;;;2.57;;
1603;SDS011;795;49.296;11.348;2023-04-24T02:59:11;1.97;;;1.87;;
1603;SDS011;795;49.296;11.348;2023-04-24T03:01:38;3.40;;;2.53;;
1603;SDS011;795;49.296;11.348;2023-04-24T03:04:05;2.10;;;2.00;;
1603;SDS011;795;49.296;11.348;2023-04-24T03:06:33;2.03;;;1.87;;
1603;SDS011;795;49.296;11.348;2023-04-24T03:09:01;2.20;;;2.10;;
1603;SDS011;795;49.296;11.348;2023-04-24T03:11:29;2.13;;;2.03;;
1603;SDS011;795;49.296;11.348;2023-04-24T03:13:56;2.20;;;2.00;;
1603;SDS011;795;49.296;11.348;2023-04-24T03:16:23;2.73;;;2.17;;
1603;SDS011;795;49.296;11.348;2023-04-24T03:18:50;2.57;;;2.37;;
1603;SDS011;795;49.296;11.348;2023-04-24T03:21:18;2.00;;;1.90;;
1603;SDS011;795;49.296;11.348;2023-04-24T03:23:45;2.57;;;2.40;;
1603;SDS011;795;49.296;11.348;2023-04-24T03:26:12;3.20;;;2.90;;
1603;SDS011;795;49.296;11.348;2023-04-24T03:28:39;3.27;;;2.97;;
1603;SDS011;795;49.296;11.348;2023-04-24T03:31:06;2.90;;;2.30;;
1603;SDS011;795;49.296;11.348;2023-04-24T03:33:32;3.00;;;2.47;;
1603;SDS011;795;49.296;11.348;2023-04-24T03:35:59;2.70;;;2.50;;
1603;SDS011;795;49.296;11.348;2023-04-24T03:38:26;3.03;;;2.83;;
1603;SDS011;795;49.296;11.348;2023-04-24T03:40:53;3.23;;;2.77;;
1603;SDS011;795;49.296;11.348;2023-04-24T03:43:20;2.97;;;2.77;;
1603;SDS011;795;49.296;11.348;2023-04-24T03:45:47;6.40;;;4.30;;
1603;SDS011;795;49.296;11.348;2023-04-24T03:48:14;3.90;;;3.50;;
1603;SDS011;795;49.296;11.348;2023-04-24T03:50:41;3.23;;;2.93;;
1603;SDS011;795;49.296;11.348;2023-04-24T03:53:08;3.13;;;2.93;;
1603;SDS011;795;49.296;11.348;2023-04-24T03:55:35;4.03;;;3.40;;
1603;SDS011;795;49.296;11.348;2023-04-24T03:58:02;4.23;;;3.80;;
1603;SDS011;795;49.296;11.348;2023-04-24T04:00:29;4.60;;;3.93;;
1603;SDS011;795;49.296;11.348;2023-04-24T04:02:58;4.13;;;3.73;;
1603;SDS011;795;49.296;11.348;2023-04-24T04:05:25;4.77;;;3.90;;
1603;SDS011;795;49.296;11.348;2023-04-24T04:07:52;4.00;;;3.43;;
1603;SDS011;795;49.296;11.348;2023-04-24T04:10:19;4.87;;;4.43;;
1603;SDS011;795;49.296;11.348;2023-04-24T04:12:46;3.67;;;3.33;;
1603;SDS011;795;49.296;11.348;2023-04-24T04:15:13;6.27;;;4.93;;
1603;SDS011;795;49.296;11.348;2023-04-24T04:17:40;5.13;;;4.47;;
1603;SDS011;795;49.296;11.348;2023-04-24T04:20:08;8.60;;;5.70;;
1603;SDS011;795;49.296;11.348;2023-04-24T04:22:36;5.10;;;4.70;;
1603;SDS011;795;49.296;11.348;2023-04-24T04:25:03;8.57;;;6.07;;
1603;SDS011;795;49.296;11.348;2023-04-24T04:27:31;6.40;;;5.80;;
1603;SDS011;795;49.296;11.348;2023-04-24T04:29:58;6.80;;;5.07;;
1603;SDS011;795;49.296;11.348;2023-04-24T04:32:31;6.10;;;4.87;;
1603;SDS011;795;49.296;11.348;2023-04-24T04:35:01;6.03;;;5.37;;
1603;SDS011;795;49.296;11.348;2023-04-24T04:37:29;5.33;;;4.83;;
1603;SDS011;795;49.296;11.348;2023-04-24T04:40:00;6.13;;;5.53;;
1603;SDS011;795;49.296;11.348;2023-04-24T04:42:38;6.03;;;4.70;;
1603;SDS011;795;49.296;11.348;2023-04-24T04:45:07;5.47;;;5.00;;
1603;SDS011;795;49.296;11.348;2023-04-24T04:47:34;6.10;;;5.00;;
1603;SDS011;795;49.296;11.348;2023-04-24T04:50:02;7.30;;;5.47;;
1603;SDS011;795;49.296;11.348;2023-04-24T04:52:31;6.07;;;5.50;;
1603;SDS011;795;49.296;11.348;2023-04-24T04:54:58;5.80;;;5.20;;
1603;SDS011;795;49.296;11.348;2023-04-24T04:57:25;7.73;;;7.00;;
1603;SDS011;795;49.296;11.348;2023-04-24T04:59:52;12.40;;;5.80;;
1603;SDS011;795;49.296;11.348;2023-04-24T05:02:19;7.43;;;6.13;;
1603;SDS011;795;49.296;11.348;2023-04-24T05:04:46;6.67;;;5.80;;
1603;SDS011;795;49.296;11.348;2023-04-24T05:07:14;7.63;;;6.77;;
1603;SDS011;795;49.296;11.348;2023-04-24T05:09:40;6.83;;;5.17;;
1603;SDS011;795;49.296;11.348;2023-04-24T05:12:08;7.20;;;6.00;;
1603;SDS011;795;49.296;11.348;2023-04-24T05:14:35;7.80;;;6.30;;
1603;SDS011;795;49.296;11.348;2023-04-24T05:17:02;7.20;;;5.87;;
1603;SDS011;795;49.296;11.348;2023-04-24T05:19:29;8.20;;;6.43;;
1603;SDS011;795;49.296;11.348;2023-04-24T05:21:58;9.73;;;6.30;;
1603;SDS011;795;49.296;11.348;2023-04-24T05:24:29;8.00;;;5.87;;
1603;SDS011;795;49.296;11.348;2023-04-24T05:26:56;5.83;;;5.03;;
1603;SDS011;795;49.296;11.348;2023-04-24T05:29:24;6.80;;;6.10;;
1603;SDS011;795;49.296;11.348;2023-04-24T05:31:52;8.47;;;6.20;;
1603;SDS011;795;49.296;11.348;2023-04-24T05:34:19;7.53;;;6.83;;
1603;SDS011;795;49.296;11.348;2023-04-24T05:36:46;6.03;;;5.03;;
1603;SDS011;795;49.296;11.348;2023-04-24T05:39:14;7.83;;;5.00;;
1603;SDS011;795;49.296;11.348;2023-04-24T05:41:41;9.43;;;5.83;;
1603;SDS011;795;49.296;11.348;2023-04-24T05:44:08;5.83;;;5.23;;
1603;SDS011;795;49.296;11.348;2023-04-24T05:46:35;6.30;;;5.70;;
1603;SDS011;795;49.296;11.348;2023-04-24T05:49:02;6.83;;;5.70;;
1603;SDS011;795;49.296;11.348;2023-04-24T05:51:29;6.13;;;5.53;;
1603;SDS011;795;49.296;11.348;2023-04-24T05:53:57;5.67;;;5.17;;
1603;SDS011;795;49.296;11.348;2023-04-24T05:56:24;4.83;;;4.43;;
1603;SDS011;795;49.296;11.348;2023-04-24T05:58:51;6.47;;;5.53;;
1603;SDS011;795;49.296;11.348;2023-04-24T06:01:18;8.20;;;5.77;;
1603;SDS011;795;49.296;11.348;2023-04-24T06:03:45;4.97;;;4.50;;
1603;SDS011;795;49.296;11.348;2023-04-24T06:06:13;6.30;;;4.83;;
1603;SDS011;795;49.296;11.348;2023-04-24T06:08:40;4.80;;;4.40;;
1603;SDS011;795;49.296;11.348;2023-04-24T06:11:08;4.70;;;4.27;;
1603;SDS011;795;49.296;11.348;2023-04-24T06:13:35;4.90;;;4.47;;
1603;SDS011;795;49.296;11.348;2023-04-24T06:16:02;4.83;;;4.30;;
1603;SDS011;795;49.296;11.348;2023-04-24T06:18:31;4.63;;;4.23;;
1603;SDS011;795;49.296;11.348;2023-04-24T06:20:58;5.70;;;4.70;;
1603;SDS011;795;49.296;11.348;2023-04-24T06:23:25;5.30;;;4.30;;
1603;SDS011;795;49.296;11.348;2023-04-24T06:25:52;4.37;;;3.97;;
1603;SDS011;795;49.296;11.348;2023-04-24T06:28:19;4.23;;;3.80;;
1603;SDS011;795;49.296;11.348;2023-04-24T06:30:46;3.60;;;3.30;;
1603;SDS011;795;49.296;11.348;2023-04-24T06:33:13;3.63;;;3.33;;
1603;SDS011;795;49.296;11.348;2023-04-24T06:35:47;3.70;;;3.40;;
1603;SDS011;795;49.296;11.348;2023-04-24T06:38:14;3.43;;;2.83;;
1603;SDS011;795;49.296;11.348;2023-04-24T06:40:42;3.83;;;3.47;;
1603;SDS011;795;49.296;11.348;2023-04-24T06:43:09;3.10;;;2.80;;
1603;SDS011;795;49.296;11.348;2023-04-24T06:45:37;2.90;;;2.70;;
1603;SDS011;795;49.296;11.348;2023-04-24T06:48:06;2.93;;;2.73;;
1603;SDS011;795;49.296;11.348;2023-04-24T06:50:33;2.83;;;2.63;;
1603;SDS011;795;49.296;11.348;2023-04-24T06:53:00;2.23;;;2.03;;
1603;SDS011;795;49.296;11.348;2023-04-24T06:55:26;1.83;;;1.73;;
1603;SDS011;795;49.296;11.348;2023-04-24T06:57:53;1.80;;;1.70;;
1603;SDS011;795;49.296;11.348;2023-04-24T07:00:20;2.00;;;1.90;;
1603;SDS011;795;49.296;11.348;2023-04-24T07:02:50;1.60;;;1.50;;
1603;SDS011;795;49.296;11.348;2023-04-24T07:05:17;1.57;;;1.47;;
1603;SDS011;795;49.296;11.348;2023-04-24T07:07:46;2.00;;;1.77;;
1603;SDS011;795;49.296;11.348;2023-04-24T07:10:15;1.60;;;1.50;;
1603;SDS011;795;49.296;11.348;2023-04-24T07:12:42;1.53;;;1.27;;
1603;SDS011;795;49.296;11.348;2023-04-24T07:15:09;1.60;;;1.50;;
1603;SDS011;795;49.296;11.348;2023-04-24T07:17:36;1.40;;;1.30;;
1603;SDS011;795;49.296;11.348;2023-04-24T07:20:04;2.33;;;2.13;;
1603;SDS011;795;49.296;11.348;2023-04-24T07:22:35;1.80;;;1.70;;
1603;SDS011;795;49.296;11.348;2023-04-24T07:25:04;2.30;;;1.67;;
1603;SDS011;795;49.296;11.348;2023-04-24T07:27:31;1.33;;;1.30;;
1603;SDS011;795;49.296;11.348;2023-04-24T07:30:00;1.70;;;1.60;;
1603;SDS011;795;49.296;11.348;2023-04-24T07:32:30;1.33;;;1.30;;
1603;SDS011;795;49.296;11.348;2023-04-24T07:34:57;1.63;;;1.50;;
1603;SDS011;795;49.296;11.348;2023-04-24T07:37:24;5.97;;;1.50;;
1603;SDS011;795;49.296;11.348;2023-04-24T07:39:51;1.50;;;1.40;;
1603;SDS011;795;49.296;11.348;2023-04-24T07:42:18;1.67;;;1.47;;
1603;SDS011;795;49.296;11.348;2023-04-24T07:44:45;1.60;;;1.50;;
1603;SDS011;795;49.296;11.348;2023-04-24T07:47:13;1.73;;;1.63;;
1603;SDS011;795;49.296;11.348;2023-04-24T07:49:41;1.63;;;1.53;;
1603;SDS011;795;49.296;11.348;2023-04-24T07:52:09;1.30;;;1.20;;
1603;SDS011;795;49.296;11.348;2023-04-24T07:54:36;3.37;;;1.87;;
1603;SDS011;795;49.296;11.348;2023-04-24T07:57:03;4.40;;;2.00;;
1603;SDS011;795;49.296;11.348;2023-04-24T07:59:32;2.00;;;1.53;;
1603;SDS011;795;49.296;11.348;2023-04-24T08:03:52;2.77;;;2.33;;
1603;SDS011;795;49.296;11.348;2023-04-24T08:06:19;3.33;;;1.80;;
1603;SDS011;795;49.296;11.348;2023-04-24T08:08:46;6.53;;;2.10;;
1603;SDS011;795;49.296;11.348;2023-04-24T08:11:13;1.93;;;1.83;;
1603;SDS011;795;49.296;11.348;2023-04-24T08:13:40;3.40;;;2.53;;
1603;SDS011;795;49.296;11.348;2023-04-24T08:16:07;3.37;;;2.00;;
1603;SDS011;795;49.296;11.348;2023-04-24T08:18:34;1.97;;;1.87;;
1603;SDS011;795;49.296;11.348;2023-04-24T08:21:02;2.63;;;2.43;;
1603;SDS011;795;49.296;11.348;2023-04-24T08:23:29;2.13;;;2.03;;
1603;SDS011;795;49.296;11.348;2023-04-24T08:25:56;2.40;;;2.20;;
1603;SDS011;795;49.296;11.348;2023-04-24T08:28:23;5.07;;;3.27;;
1603;SDS011;795;49.296;11.348;2023-04-24T08:30:51;2.80;;;2.60;;
1603;SDS011;795;49.296;11.348;2023-04-24T08:33:23;2.27;;;2.07;;
1603;SDS011;795;49.296;11.348;2023-04-24T08:35:50;5.43;;;2.47;;
1603;SDS011;795;49.296;11.348;2023-04-24T08:38:18;2.27;;;2.17;;
1603;SDS011;795;49.296;11.348;2023-04-24T08:40:47;2.40;;;2.23;;
1603;SDS011;795;49.296;11.348;2023-04-24T08:43:15;4.03;;;2.20;;
1603;SDS011;795;49.296;11.348;2023-04-24T08:45:43;3.00;;;2.80;;
1603;SDS011;795;49.296;11.348;2023-04-24T08:48:10;2.33;;;2.13;;
1603;SDS011;795;49.296;11.348;2023-04-24T08:50:56;2.30;;;2.10;;
1603;SDS011;795;49.296;11.348;2023-04-24T08:53:25;3.13;;;2.67;;
1603;SDS011;795;49.296;11.348;2023-04-24T08:55:53;2.83;;;2.60;;
1603;SDS011;795;49.296;11.348;2023-04-24T08:58:24;2.40;;;2.27;;
1603;SDS011;795;49.296;11.348;2023-04-24T09:00:55;4.30;;;2.13;;
1603;SDS011;795;49.296;11.348;2023-04-24T09:03:24;2.30;;;2.20;;
1603;SDS011;795;49.296;11.348;2023-04-24T09:05:58;3.27;;;2.10;;
1603;SDS011;795;49.296;11.348;2023-04-24T09:08:26;3.00;;;2.50;;
1603;SDS011;795;49.296;11.348;2023-04-24T09:10:56;2.80;;;2.60;;
1603;SDS011;795;49.296;11.348;2023-04-24T09:13:24;2.63;;;2.43;;
1603;SDS011;795;49.296;11.348;2023-04-24T09:15:52;3.03;;;2.10;;
1603;SDS011;795;49.296;11.348;2023-04-24T09:18:20;2.60;;;2.50;;
1603;SDS011;795;49.296;11.348;2023-04-24T09:20:56;1.93;;;1.83;;
1603;SDS011;795;49.296;11.348;2023-04-24T09:23:35;1.97;;;1.87;;
1603;SDS011;795;49.296;11.348;2023-04-24T09:26:03;2.40;;;2.20;;
1603;SDS011;795;49.296;11.348;2023-04-24T09:28:37;2.07;;;1.93;;
1603;SDS011;795;49.296;11.348;2023-04-24T09:31:07;2.97;;;2.67;;
1603;SDS011;795;49.296;11.348;2023-04-24T09:33:50;2.30;;;2.10;;
1603;SDS011;795;49.296;11.348;2023-04-24T09:36:38;2.50;;;2.30;;
1603;SDS011;795;49.296;11.348;2023-04-24T09:39:09;2.30;;;2.13;;
1603;SDS011;795;49.296;11.348;2023-04-24T09:41:44;2.53;;;2.33;;
1603;SDS011;795;49.296;11.348;2023-04-24T09:46:50;2.30;;;2.10;;
1603;SDS011;795;49.296;11.348;2023-04-24T09:49:26;2.80;;;2.60;;
1603;SDS011;795;49.296;11.348;2023-04-24T09:52:03;2.20;;;2.10;;
1603;SDS011;795;49.296;11.348;2023-04-24T09:54:32;2.10;;;2.00;;
1603;SDS011;795;49.296;11.348;2023-04-24T09:56:59;4.13;;;2.50;;
1603;SDS011;795;49.296;11.348;2023-04-24T09:59:27;2.40;;;2.23;;
1603;SDS011;795;49.296;11.348;2023-04-24T10:01:54;3.23;;;2.23;;
1603;SDS011;795;49.296;11.348;2023-04-24T10:04:23;2.40;;;2.20;;
1603;SDS011;795;49.296;11.348;2023-04-24T10:06:54;2.20;;;2.00;;
1603;SDS011;795;49.296;11.348;2023-04-24T10:09:24;2.30;;;2.20;;
1603;SDS011;795;49.296;11.348;2023-04-24T10:11:53;4.50;;;1.73;;
1603;SDS011;795;49.296;11.348;2023-04-24T10:14:24;2.10;;;2.00;;
1603;SDS011;795;49.296;11.348;2023-04-24T10:16:54;2.60;;;1.83;;
1603;SDS011;795;49.296;11.348;2023-04-24T10:19:25;2.20;;;2.00;;
1603;SDS011;795;49.296;11.348;2023-04-24T10:21:52;2.73;;;2.53;;
1603;SDS011;795;49.296;11.348;2023-04-24T10:24:22;1.77;;;1.67;;
1603;SDS011;795;49.296;11.348;2023-04-24T10:26:49;2.77;;;1.87;;
1603;SDS011;795;49.296;11.348;2023-04-24T10:29:17;2.13;;;1.77;;
1603;SDS011;795;49.296;11.348;2023-04-24T10:31:45;1.90;;;1.80;;
1603;SDS011;795;49.296;11.348;2023-04-24T10:34:14;1.70;;;1.60;;
1603;SDS011;795;49.296;11.348;2023-04-24T10:36:48;2.20;;;2.00;;
1603;SDS011;795;49.296;11.348;2023-04-24T10:39:23;1.67;;;1.57;;
1603;SDS011;795;49.296;11.348;2023-04-24T10:41:53;1.40;;;1.30;;
1603;SDS011;795;49.296;11.348;2023-04-24T10:44:24;1.90;;;1.80;;
1603;SDS011;795;49.296;11.348;2023-04-24T10:46:54;1.93;;;1.83;;
1603;SDS011;795;49.296;11.348;2023-04-24T10:49:29;1.50;;;1.40;;
1603;SDS011;795;49.296;11.348;2023-04-24T10:52:02;1.37;;;1.30;;
1603;SDS011;795;49.296;11.348;2023-04-24T10:54:43;2.30;;;1.60;;
1603;SDS011;795;49.296;11.348;2023-04-24T10:59:50;1.80;;;1.70;;
1603;SDS011;795;49.296;11.348;2023-04-24T11:02:38;2.07;;;1.90;;
1603;SDS011;795;49.296;11.348;2023-04-24T11:05:15;1.70;;;1.60;;
1603;SDS011;795;49.296;11.348;2023-04-24T11:10:38;1.57;;;1.30;;
1603;SDS011;795;49.296;11.348;2023-04-24T11:13:13;1.60;;;1.50;;
1603;SDS011;795;49.296;11.348;2023-04-24T11:18:52;2.10;;;1.00;;
1603;SDS011;795;49.296;11.348;2023-04-24T11:21:46;1.20;;;1.20;;
1603;SDS011;795;49.296;11.348;2023-04-24T11:24:41;1.93;;;1.77;;
1603;SDS011;795;49.296;11.348;2023-04-24T11:27:20;1.40;;;1.20;;
1603;SDS011;795;49.296;11.348;2023-04-24T11:29:49;1.37;;;1.27;;
1603;SDS011;795;49.296;11.348;2023-04-24T11:32:35;1.57;;;1.47;;
1603;SDS011;795;49.296;11.348;2023-04-24T11:35:18;2.70;;;1.43;;
1603;SDS011;795;49.296;11.348;2023-04-24T11:37:54;1.50;;;1.40;;
1603;SDS011;795;49.296;11.348;2023-04-24T11:40:24;1.90;;;1.80;;
1603;SDS011;795;49.296;11.348;2023-04-24T11:42:52;1.70;;;1.60;;
1603;SDS011;795;49.296;11.348;2023-04-24T11:45:24;2.30;;;1.70;;
1603;SDS011;795;49.296;11.348;2023-04-24T11:47:54;1.60;;;1.50;;
1603;SDS011;795;49.296;11.348;2023-04-24T11:50:22;1.93;;;1.63;;
1603;SDS011;795;49.296;11.348;2023-04-24T11:52:53;1.67;;;1.57;;
1603;SDS011;795;49.296;11.348;2023-04-24T11:57:53;1.47;;;1.37;;
1603;SDS011;795;49.296;11.348;2023-04-24T12:03:09;2.07;;;1.53;;
1603;SDS011;795;49.296;11.348;2023-04-24T12:05:38;1.20;;;1.20;;
1603;SDS011;795;49.296;11.348;2023-04-24T12:08:06;1.47;;;1.37;;
1603;SDS011;795;49.296;11.348;2023-04-24T12:10:33;1.20;;;1.20;;
1603;SDS011;795;49.296;11.348;2023-04-24T12:13:02;1.73;;;1.63;;
1603;SDS011;795;49.296;11.348;2023-04-24T12:15:29;1.40;;;1.30;;
1603;SDS011;795;49.296;11.348;2023-04-24T12:17:56;2.03;;;1.83;;
1603;SDS011;795;49.296;11.348;2023-04-24T12:20:24;2.10;;;1.57;;
1603;SDS011;795;49.296;11.348;2023-04-24T12:22:56;1.30;;;1.30;;
1603;SDS011;795;49.296;11.348;2023-04-24T12:25:27;1.20;;;1.20;;
1603;SDS011;795;49.296;11.348;2023-04-24T12:30:31;2.70;;;1.80;;
1603;SDS011;795;49.296;11.348;2023-04-24T12:33:02;1.90;;;1.80;;
1603;SDS011;795;49.296;11.348;2023-04-24T12:35:30;3.13;;;2.13;;
1603;SDS011;795;49.296;11.348;2023-04-24T12:38:06;2.37;;;1.70;;
1603;SDS011;795;49.296;11.348;2023-04-24T12:40:37;2.20;;;2.00;;
1603;SDS011;795;49.296;11.348;2023-04-24T12:43:14;2.17;;;2.07;;
1603;SDS011;795;49.296;11.348;2023-04-24T12:45:43;1.97;;;1.83;;
1603;SDS011;795;49.296;11.348;2023-04-24T12:48:11;2.17;;;2.07;;
1603;SDS011;795;49.296;11.348;2023-04-24T12:50:40;1.67;;;1.57;;
1603;SDS011;795;49.296;11.348;2023-04-24T12:53:12;1.90;;;1.80;;
1603;SDS011;795;49.296;11.348;2023-04-24T12:55:41;1.77;;;1.67;;
1603;SDS011;795;49.296;11.348;2023-04-24T12:58:08;1.77;;;1.67;;
1603;SDS011;795;49.296;11.348;2023-04-24T13:00:35;1.83;;;1.73;;
1603;SDS011;795;49.296;11.348;2023-04-24T13:03:03;1.87;;;1.50;;
1603;SDS011;795;49.296;11.348;2023-04-24T13:05:31;1.80;;;1.70;;
1603;SDS011;795;49.296;11.348;2023-04-24T13:07:58;2.87;;;1.87;;
1603;SDS011;795;49.296;11.348;2023-04-24T13:10:25;1.90;;;1.77;;
1603;SDS011;795;49.296;11.348;2023-04-24T13:12:51;1.90;;;1.80;;
1603;SDS011;795;49.296;11.348;2023-04-24T13:15:18;1.87;;;1.77;;
1603;SDS011;795;49.296;11.348;2023-04-24T13:17:46;1.60;;;1.50;;
1603;SDS011;795;49.296;11.348;2023-04-24T13:20:12;1.97;;;1.87;;
1603;SDS011;795;49.296;11.348;2023-04-24T13:22:39;1.60;;;1.50;;
1603;SDS011;795;49.296;11.348;2023-04-24T13:25:07;1.77;;;1.63;;
1603;SDS011;795;49.296;11.348;2023-04-24T13:27:35;1.57;;;1.47;;
1603;SDS011;795;49.296;11.348;2023-04-24T13:30:05;1.90;;;1.80;;
1603;SDS011;795;49.296;11.348;2023-04-24T13:32:33;1.97;;;1.87;;
1603;SDS011;795;49.296;11.348;2023-04-24T13:35:01;2.00;;;1.90;;
1603;SDS011;795;49.296;11.348;2023-04-24T13:37:28;2.03;;;1.70;;
1603;SDS011;795;49.296;11.348;2023-04-24T13:39:55;2.27;;;2.10;;
1603;SDS011;795;49.296;11.348;2023-04-24T13:42:22;1.77;;;1.67;;
1603;SDS011;795;49.296;11.348;2023-04-24T13:44:49;1.90;;;1.80;;
1603;SDS011;795;49.296;11.348;2023-04-24T13:47:17;5.33;;;2.30;;
1603;SDS011;795;49.296;11.348;2023-04-24T13:49:44;2.77;;;2.57;;
1603;SDS011;795;49.296;11.348;2023-04-24T13:52:11;2.17;;;2.07;;
1603;SDS011;795;49.296;11.348;2023-04-24T13:54:38;3.20;;;2.97;;
1603;SDS011;795;49.296;11.348;2023-04-24T13:57:05;2.20;;;2.10;;
1603;SDS011;795;49.296;11.348;2023-04-24T13:59:31;3.93;;;2.27;;
1603;SDS011;795;49.296;11.348;2023-04-24T14:01:59;2.80;;;2.60;;
1603;SDS011;795;49.296;11.348;2023-04-24T14:04:26;2.60;;;2.20;;
1603;SDS011;795;49.296;11.348;2023-04-24T14:06:53;1.93;;;1.83;;
1603;SDS011;795;49.296;11.348;2023-04-24T14:09:20;2.30;;;2.20;;
1603;SDS011;795;49.296;11.348;2023-04-24T14:11:47;2.73;;;2.53;;
1603;SDS011;795;49.296;11.348;2023-04-24T14:14:14;4.27;;;2.70;;
1603;SDS011;795;49.296;11.348;2023-04-24T14:16:41;3.90;;;3.60;;
1603;SDS011;795;49.296;11.348;2023-04-24T14:19:08;3.73;;;3.23;;
1603;SDS011;795;49.296;11.348;2023-04-24T14:21:35;2.27;;;2.13;;
1603;SDS011;795;49.296;11.348;2023-04-24T14:24:02;3.57;;;3.27;;
1603;SDS011;795;49.296;11.348;2023-04-24T14:26:29;3.10;;;2.80;;
1603;SDS011;795;49.296;11.348;2023-04-24T14:28:56;4.80;;;3.63;;
1603;SDS011;795;49.296;11.348;2023-04-24T14:31:39;3.27;;;2.90;;
1603;SDS011;795;49.296;11.348;2023-04-24T14:34:06;2.53;;;2.33;;
1603;SDS011;795;49.296;11.348;2023-04-24T14:36:33;4.10;;;3.70;;
1603;SDS011;795;49.296;11.348;2023-04-24T14:39:01;3.20;;;2.90;;
1603;SDS011;795;49.296;11.348;2023-04-24T14:41:32;7.63;;;6.30;;
1603;SDS011;795;49.296;11.348;2023-04-24T14:44:02;3.30;;;3.00;;
1603;SDS011;795;49.296;11.348;2023-04-24T14:46:30;3.17;;;2.97;;
1603;SDS011;795;49.296;11.348;2023-04-24T14:48:57;4.17;;;3.60;;
1603;SDS011;795;49.296;11.348;2023-04-24T14:51:24;3.60;;;3.30;;
1603;SDS011;795;49.296;11.348;2023-04-24T14:53:51;2.40;;;2.20;;
1603;SDS011;795;49.296;11.348;2023-04-24T14:56:19;3.40;;;2.67;;
1603;SDS011;795;49.296;11.348;2023-04-24T14:58:46;3.20;;;2.13;;
1603;SDS011;795;49.296;11.348;2023-04-24T15:01:13;2.40;;;2.20;;
1603;SDS011;795;49.296;11.348;2023-04-24T15:03:43;3.53;;;2.77;;
1603;SDS011;795;49.296;11.348;2023-04-24T15:06:11;2.77;;;2.57;;
1603;SDS011;795;49.296;11.348;2023-04-24T15:08:38;3.00;;;2.80;;
1603;SDS011;795;49.296;11.348;2023-04-24T15:11:05;2.83;;;2.63;;
1603;SDS011;795;49.296;11.348;2023-04-24T15:13:32;2.53;;;2.33;;
1603;SDS011;795;49.296;11.348;2023-04-24T15:15:59;2.20;;;2.10;;
1603;SDS011;795;49.296;11.348;2023-04-24T15:18:26;3.73;;;3.43;;
1603;SDS011;795;49.296;11.348;2023-04-24T15:20:55;3.23;;;2.30;;
1603;SDS011;795;49.296;11.348;2023-04-24T15:23:22;2.40;;;2.30;;
1603;SDS011;795;49.296;11.348;2023-04-24T15:25:49;2.80;;;2.50;;
1603;SDS011;795;49.296;11.348;2023-04-24T15:28:16;3.00;;;2.70;;
1603;SDS011;795;49.296;11.348;2023-04-24T15:30:43;3.23;;;3.00;;
1603;SDS011;795;49.296;11.348;2023-04-24T15:33:11;2.93;;;2.73;;
1603;SDS011;795;49.296;11.348;2023-04-24T15:35:38;3.07;;;2.63;;
1603;SDS011;795;49.296;11.348;2023-04-24T15:38:05;2.83;;;2.63;;
1603;SDS011;795;49.296;11.348;2023-04-24T15:40:32;3.33;;;3.13;;
1603;SDS011;795;49.296;11.348;2023-04-24T15:42:59;3.07;;;2.87;;
1603;SDS011;795;49.296;11.348;2023-04-24T15:45:26;2.73;;;2.57;;